Annandale, New Jersey
Current Conditions -  °F | °C
As of 6:53 AM on Friday 19 Dec 2014 (Local Time) from KSMQ Reporting Station
Overcast Overcast  
Wind Chill:   Ceiling: 3900
Heat Index:   Visibility: 10mi
Dew Point: -5°   Wind: 6mph
Humidity: 55%   Direction: NA
Pressure: 30"   Gusts: NA
Location:  40.65°N, 74.89°W
Report Text: KSMQ 191153Z AUTO VRB05KT 10SM OVC039 03/M05 A3000 RMK AO2 SLP159 T00331050 10033 20028 53004
Loading
Personal Weather Stations






























Interactive Weather Map New forecast layout! Learn more

10-Day Weather Forecast

Advertisements
Track Severe Weather on mobile